Aquilla, Alabama
Current Conditions -  °F | °C
As of 7:58 AM on Monday 26 Jan 2015 (Local Time) from KMEI Reporting Station
Overcast Overcast  
Wind Chill: 40°   Ceiling: 2500
Heat Index: 45°   Visibility: 10mi
Dew Point: 35°   Wind: 10mph
Humidity: 68%   Direction: 330°NNW
Pressure: 30.06"   Gusts: NA
Location:  31.6272°N, 88.354°W
Report Text: KMEI 261358Z 33009KT 10SM OVC025 07/02 A3006 RMK AO2 SLP178 T00720017
Loading
Personal Weather Stations






























Interactive Weather Map New forecast layout! Learn more

10-Day Weather Forecast

Advertisements
Track Severe Weather on mobile